createdAt,value
2023-02-13T00:01:54.450Z,1.00
2023-02-13T00:06:58.904Z,1.10
2023-02-13T00:12:01.929Z,1.00
2023-02-13T00:17:05.299Z,1.00
2023-02-13T00:22:10.003Z,1.00
2023-02-13T00:27:13.117Z,1.10
2023-02-13T00:32:16.274Z,1.00
2023-02-13T00:37:20.782Z,0.80
2023-02-13T00:42:26.595Z,0.70
2023-02-13T00:47:29.702Z,0.60
2023-02-13T00:52:34.136Z,0.20
2023-02-13T00:57:37.259Z,0.60
2023-02-13T01:02:40.309Z,0.70
2023-02-13T01:07:44.750Z,0.50
2023-02-13T01:12:48.997Z,0.40
2023-02-13T01:17:54.081Z,0.40
2023-02-13T01:22:58.987Z,0.40
2023-02-13T01:28:02.119Z,0.40
2023-02-13T01:33:05.397Z,0.40
2023-02-13T01:38:10.712Z,0.40
2023-02-13T01:43:13.865Z,0.40
2023-02-13T01:48:18.528Z,0.40
2023-02-13T01:53:26.206Z,0.40
2023-02-13T01:58:30.875Z,0.40
2023-02-13T02:03:36.619Z,0.50
2023-02-13T02:08:46.073Z,0.50
2023-02-13T02:13:55.396Z,0.60
2023-02-13T02:19:12.934Z,0.60
2023-02-13T02:24:28.468Z,0.60
2023-02-13T02:29:39.441Z,0.60
2023-02-13T02:34:46.343Z,0.60
2023-02-13T02:39:54.857Z,1.00
2023-02-13T02:45:04.251Z,0.70
2023-02-13T02:50:15.740Z,0.70
2023-02-13T02:55:23.599Z,1.30
2023-02-13T03:00:47.752Z,0.70
2023-02-13T03:06:11.029Z,0.60
2023-02-13T03:11:31.535Z,0.60
2023-02-13T03:16:52.189Z,0.60
2023-02-13T03:22:17.093Z,0.60
2023-02-13T03:27:40.906Z,0.60
2023-02-13T03:32:46.955Z,0.60
2023-02-13T03:37:56.233Z,0.60
2023-02-13T03:43:03.689Z,0.70
2023-02-13T03:48:30.717Z,0.70
2023-02-13T03:53:36.838Z,0.80
2023-02-13T03:58:59.773Z,0.90
2023-02-13T04:04:06.770Z,0.90
2023-02-13T04:09:11.230Z,0.80
2023-02-13T04:14:17.141Z,0.90
2023-02-13T04:19:20.909Z,1.20
2023-02-13T04:24:25.339Z,1.80
2023-02-13T04:29:28.405Z,1.00
2023-02-13T04:34:31.473Z,1.10
2023-02-13T04:39:36.610Z,1.00
2023-02-13T04:44:39.767Z,0.90
2023-02-13T04:49:42.822Z,0.90
2023-02-13T04:54:47.220Z,1.00
2023-02-13T04:59:50.323Z,1.00
2023-02-13T05:04:53.370Z,0.90
2023-02-13T05:09:57.763Z,0.90
2023-02-13T05:15:00.810Z,1.00
2023-02-13T05:20:03.989Z,0.90
2023-02-13T05:25:08.717Z,1.00
2023-02-13T05:30:12.444Z,0.90
2023-02-13T05:35:15.669Z,0.90
2023-02-13T05:40:21.341Z,1.00
2023-02-13T05:45:25.276Z,1.00
2023-02-13T05:50:28.396Z,1.00
2023-02-13T05:55:33.487Z,1.00
2023-02-13T06:00:36.564Z,1.00
2023-02-13T06:05:39.698Z,1.10
2023-02-13T06:10:45.256Z,1.00
2023-02-13T06:15:48.509Z,1.00
2023-02-13T06:20:51.680Z,0.90
2023-02-13T06:25:56.147Z,0.80
2023-02-13T06:30:59.758Z,0.80
2023-02-13T06:36:02.968Z,0.80
2023-02-13T06:41:07.536Z,0.80
2023-02-13T06:46:10.583Z,0.70
2023-02-13T06:51:14.048Z,0.70
2023-02-13T06:56:19.089Z,0.60
2023-02-13T07:01:22.204Z,2.00
2023-02-13T07:06:25.271Z,0.60
2023-02-13T07:11:29.834Z,0.60
2023-02-13T07:16:33.297Z,0.60
2023-02-13T07:21:38.105Z,0.70
2023-02-13T07:26:42.539Z,0.70
2023-02-13T07:31:48.542Z,0.70
2023-02-13T07:36:51.613Z,0.70
2023-02-13T07:41:56.690Z,0.80
2023-02-13T07:47:02.426Z,0.80
2023-02-13T07:52:05.690Z,0.80
2023-02-13T07:57:10.145Z,0.80
2023-02-13T08:02:14.577Z,0.80
2023-02-13T08:07:18.243Z,0.80
2023-02-13T08:12:22.685Z,0.90
2023-02-13T08:17:25.776Z,0.90
2023-02-13T08:22:28.864Z,0.80
2023-02-13T08:27:33.365Z,0.90
2023-02-13T08:32:52.087Z,1.00
2023-02-13T08:37:56.766Z,0.90
2023-02-13T08:43:05.096Z,1.00
2023-02-13T08:48:08.136Z,1.00
2023-02-13T08:53:11.163Z,1.20
2023-02-13T08:58:15.594Z,1.20
2023-02-13T09:03:18.997Z,1.20
2023-02-13T09:08:22.024Z,1.30
2023-02-13T09:13:26.752Z,1.40
2023-02-13T09:18:29.775Z,1.30
2023-02-13T09:23:33.353Z,1.50
2023-02-13T09:28:38.291Z,1.50
2023-02-13T09:33:41.359Z,1.40
2023-02-13T09:38:45.083Z,1.20
2023-02-13T09:43:50.817Z,1.60
2023-02-13T09:48:55.741Z,1.60
2023-02-13T09:54:00.340Z,1.50
2023-02-13T09:59:08.610Z,1.70
2023-02-13T10:04:23.583Z,1.80
2023-02-13T10:09:30.544Z,1.80
2023-02-13T10:14:39.536Z,1.80
2023-02-13T10:19:43.820Z,2.00
2023-02-13T10:24:49.496Z,2.00
2023-02-13T10:30:06.291Z,2.10
2023-02-13T10:35:19.035Z,2.20
2023-02-13T10:40:22.311Z,2.40
2023-02-13T10:45:32.659Z,2.70
2023-02-13T10:50:38.264Z,2.80
2023-02-13T10:55:50.756Z,2.90
2023-02-13T11:00:57.114Z,2.80
2023-02-13T11:06:01.856Z,2.90
2023-02-13T11:11:05.064Z,3.10
2023-02-13T11:16:10.798Z,3.50
2023-02-13T11:21:17.414Z,3.30
2023-02-13T11:26:23.769Z,3.20
2023-02-13T11:31:29.839Z,3.80
2023-02-13T11:36:33.814Z,4.10
2023-02-13T11:41:42.117Z,4.40
2023-02-13T11:46:50.487Z,4.60
2023-02-13T11:51:56.327Z,4.60
2023-02-13T11:57:04.815Z,4.80
2023-02-13T12:02:19.483Z,5.20
2023-02-13T12:07:26.248Z,5.70
2023-02-13T12:12:35.234Z,5.80
2023-02-13T12:17:43.747Z,5.70
2023-02-13T12:23:01.688Z,5.80
2023-02-13T12:28:16.318Z,6.20
2023-02-13T12:33:37.891Z,6.60
2023-02-13T12:38:51.623Z,6.00
2023-02-13T12:44:31.244Z,6.30
2023-02-13T12:49:51.809Z,5.60
2023-02-13T12:55:05.686Z,5.50
2023-02-13T13:00:23.920Z,5.50
2023-02-13T13:05:39.041Z,6.10
2023-02-13T13:10:50.934Z,5.00
2023-02-13T13:16:06.050Z,5.70
2023-02-13T13:21:20.452Z,5.50
2023-02-13T13:26:32.183Z,5.80
2023-02-13T13:31:37.855Z,6.30
2023-02-13T13:36:48.450Z,6.40
2023-02-13T13:41:58.616Z,6.30
2023-02-13T13:47:08.556Z,6.40
2023-02-13T13:52:22.328Z,6.40
2023-02-13T13:57:26.183Z,6.50
2023-02-13T14:02:43.027Z,6.50
2023-02-13T14:07:52.260Z,6.40
2023-02-13T14:13:02.753Z,6.30
2023-02-13T14:18:11.347Z,6.30
2023-02-13T14:23:45.733Z,6.10
2023-02-13T14:29:13.587Z,6.10
2023-02-13T14:34:26.647Z,6.00
2023-02-13T14:39:32.504Z,6.20
2023-02-13T14:44:45.003Z,6.00
2023-02-13T14:49:50.337Z,6.00
2023-02-13T14:54:59.515Z,6.20
2023-02-13T15:00:10.258Z,6.10
2023-02-13T15:05:16.488Z,5.80
2023-02-13T15:10:36.127Z,5.80
2023-02-13T15:15:41.934Z,5.70
2023-02-13T15:20:46.180Z,5.60
2023-02-13T15:25:57.029Z,5.40
2023-02-13T15:31:03.868Z,6.90
2023-02-13T15:36:17.797Z,5.30
2023-02-13T15:41:24.930Z,5.20
2023-02-13T15:46:32.061Z,5.10
2023-02-13T15:51:36.498Z,5.00
2023-02-13T15:56:40.077Z,5.00
2023-02-13T16:01:45.800Z,4.90
2023-02-13T16:06:52.129Z,5.20
2023-02-13T16:12:01.922Z,4.70
2023-02-13T16:17:09.217Z,4.60
2023-02-13T16:22:27.840Z,4.60
2023-02-13T16:27:31.460Z,4.70
2023-02-13T16:32:38.831Z,4.70
2023-02-13T16:37:51.829Z,4.60
2023-02-13T16:42:55.374Z,4.50
2023-02-13T16:48:03.950Z,4.40
2023-02-13T16:53:07.298Z,6.00
2023-02-13T16:58:15.198Z,4.30
2023-02-13T17:03:19.796Z,4.30
2023-02-13T17:08:23.029Z,4.30
2023-02-13T17:13:26.714Z,4.20
2023-02-13T17:18:31.398Z,4.20
2023-02-13T17:23:34.982Z,4.10
2023-02-13T17:28:38.558Z,4.10
2023-02-13T17:33:45.482Z,4.10
2023-02-13T17:38:49.265Z,4.10
2023-02-13T17:43:52.848Z,4.10
2023-02-13T17:48:58.276Z,4.00
2023-02-13T17:54:02.155Z,4.00
2023-02-13T17:59:05.777Z,3.90
2023-02-13T18:04:11.477Z,3.90
2023-02-13T18:09:15.244Z,3.80
2023-02-13T18:14:20.926Z,3.80
2023-02-13T18:19:26.665Z,3.70
2023-02-13T18:24:31.181Z,3.70
2023-02-13T18:29:37.558Z,3.60
2023-02-13T18:34:42.174Z,3.50
2023-02-13T18:39:45.457Z,3.60
2023-02-13T18:44:48.811Z,3.50
2023-02-13T18:49:53.432Z,3.60
2023-02-13T18:54:56.739Z,3.50
2023-02-13T19:00:00.042Z,3.50
2023-02-13T19:05:06.373Z,3.60
2023-02-13T19:10:10.254Z,3.60
2023-02-13T19:15:13.529Z,3.60
2023-02-13T19:20:18.424Z,3.60
2023-02-13T19:25:22.234Z,3.50
2023-02-13T19:30:25.560Z,3.50
2023-02-13T19:35:30.188Z,3.50
2023-02-13T19:40:34.949Z,3.50
2023-02-13T19:45:38.224Z,3.40
2023-02-13T19:50:43.587Z,2.70
2023-02-13T19:55:46.956Z,3.50
2023-02-13T20:00:50.322Z,3.60
2023-02-13T20:05:55.308Z,3.50
2023-02-13T20:10:58.997Z,3.60
2023-02-13T20:16:05.765Z,3.40
2023-02-13T20:21:12.743Z,3.30
2023-02-13T20:26:16.932Z,3.20
2023-02-13T20:31:23.491Z,3.20
2023-02-13T20:36:32.731Z,3.20
2023-02-13T20:41:38.824Z,3.20
2023-02-13T20:46:42.473Z,3.20
2023-02-13T20:51:47.413Z,3.20
2023-02-13T20:56:51.054Z,3.30
2023-02-13T21:01:55.928Z,3.30
2023-02-13T21:07:01.473Z,3.40
2023-02-13T21:12:06.478Z,3.40
2023-02-13T21:17:11.090Z,3.30
2023-02-13T21:22:16.060Z,3.30
2023-02-13T21:27:19.519Z,3.40
2023-02-13T21:32:23.159Z,3.40
2023-02-13T21:37:28.185Z,3.40
2023-02-13T21:42:31.569Z,3.50
2023-02-13T21:47:34.978Z,3.50
2023-02-13T21:52:39.751Z,3.40
2023-02-13T21:57:43.050Z,3.40
2023-02-13T22:02:46.548Z,3.50
2023-02-13T22:08:20.110Z,3.70
2023-02-13T22:13:23.898Z,3.70
2023-02-13T22:18:27.219Z,3.60
2023-02-13T22:23:31.974Z,3.80
2023-02-13T22:28:35.964Z,3.90
2023-02-13T22:33:39.371Z,3.80
2023-02-13T22:38:44.134Z,3.40
2023-02-13T22:43:47.439Z,3.20
2023-02-13T22:48:52.085Z,3.20
2023-02-13T22:53:58.085Z,3.10
2023-02-13T22:59:01.552Z,3.10
2023-02-13T23:04:05.020Z,3.00
2023-02-13T23:09:09.895Z,2.90
2023-02-13T23:14:14.005Z,2.80
2023-02-13T23:19:17.367Z,2.80
2023-02-13T23:24:22.240Z,2.90
2023-02-13T23:29:25.670Z,2.80
2023-02-13T23:34:28.964Z,2.90
2023-02-13T23:39:33.621Z,2.90
2023-02-13T23:44:36.922Z,2.90
2023-02-13T23:49:40.191Z,2.90
2023-02-13T23:54:46.130Z,2.60
2023-02-13T23:59:49.421Z,2.50
